sensor_id;sensor_type;location;lat;lon;timestamp;pressure;altitude;pressure_sealevel;temperature;humidity
37206;BME280;23099;42.636;23.198;2023-04-01T00:02:23;91180.22;;;11.89;45.91
37206;BME280;23099;42.636;23.198;2023-04-01T00:04:50;91176.00;;;11.88;45.92
37206;BME280;23099;42.636;23.198;2023-04-01T00:07:17;91162.25;;;11.86;45.35
37206;BME280;23099;42.636;23.198;2023-04-01T00:09:43;91177.13;;;11.97;45.75
37206;BME280;23099;42.636;23.198;2023-04-01T00:12:11;91167.56;;;12.00;45.73
37206;BME280;23099;42.636;23.198;2023-04-01T00:14:38;91169.06;;;12.01;45.52
37206;BME280;23099;42.636;23.198;2023-04-01T00:17:05;91175.59;;;12.00;45.01
37206;BME280;23099;42.636;23.198;2023-04-01T00:19:32;91172.50;;;12.05;44.67
37206;BME280;23099;42.636;23.198;2023-04-01T00:21:58;91175.19;;;12.05;45.15
37206;BME280;23099;42.636;23.198;2023-04-01T00:24:25;91179.41;;;12.06;44.56
37206;BME280;23099;42.636;23.198;2023-04-01T00:26:52;91175.56;;;12.07;44.71
37206;BME280;23099;42.636;23.198;2023-04-01T00:29:20;91177.88;;;12.09;44.59
37206;BME280;23099;42.636;23.198;2023-04-01T00:31:49;91173.66;;;12.04;44.70
37206;BME280;23099;42.636;23.198;2023-04-01T00:34:16;91166.78;;;12.03;45.52
37206;BME280;23099;42.636;23.198;2023-04-01T00:36:42;91155.69;;;11.97;44.87
37206;BME280;23099;42.636;23.198;2023-04-01T00:39:09;91148.44;;;11.98;45.29
37206;BME280;23099;42.636;23.198;2023-04-01T00:41:36;91150.00;;;11.95;44.86
37206;BME280;23099;42.636;23.198;2023-04-01T00:44:16;91146.19;;;11.89;45.42
37206;BME280;23099;42.636;23.198;2023-04-01T00:46:45;91140.81;;;11.89;45.13
37206;BME280;23099;42.636;23.198;2023-04-01T00:49:12;91139.69;;;11.87;45.23
37206;BME280;23099;42.636;23.198;2023-04-01T00:51:41;91147.69;;;11.94;45.10
37206;BME280;23099;42.636;23.198;2023-04-01T00:54:09;91140.81;;;11.93;45.21
37206;BME280;23099;42.636;23.198;2023-04-01T00:56:37;91150.78;;;11.85;45.82
37206;BME280;23099;42.636;23.198;2023-04-01T00:59:10;91134.75;;;11.78;45.10
37206;BME280;23099;42.636;23.198;2023-04-01T01:01:37;91132.44;;;11.73;45.33
37206;BME280;23099;42.636;23.198;2023-04-01T01:04:05;91124.78;;;11.72;45.17
37206;BME280;23099;42.636;23.198;2023-04-01T01:06:43;91113.75;;;11.62;45.75
37206;BME280;23099;42.636;23.198;2023-04-01T01:09:21;91109.16;;;11.59;45.55
37206;BME280;23099;42.636;23.198;2023-04-01T01:11:54;91101.13;;;11.56;45.15
37206;BME280;23099;42.636;23.198;2023-04-01T01:14:33;91102.28;;;11.58;44.94
37206;BME280;23099;42.636;23.198;2023-04-01T01:17:07;91092.00;;;11.53;44.78
37206;BME280;23099;42.636;23.198;2023-04-01T01:19:49;91092.75;;;11.54;44.83
37206;BME280;23099;42.636;23.198;2023-04-01T01:22:43;91075.94;;;11.53;45.30
37206;BME280;23099;42.636;23.198;2023-04-01T01:25:25;91070.19;;;11.51;45.23
37206;BME280;23099;42.636;23.198;2023-04-01T01:28:06;91068.28;;;11.52;44.42
37206;BME280;23099;42.636;23.198;2023-04-01T01:30:43;91076.69;;;11.50;44.57
37206;BME280;23099;42.636;23.198;2023-04-01T01:33:25;91071.34;;;11.47;44.96
37206;BME280;23099;42.636;23.198;2023-04-01T01:36:02;91069.84;;;11.42;45.22
37206;BME280;23099;42.636;23.198;2023-04-01T01:38:33;91078.25;;;11.41;44.68
37206;BME280;23099;42.636;23.198;2023-04-01T01:41:02;91078.25;;;11.41;44.46
37206;BME280;23099;42.636;23.198;2023-04-01T01:43:32;91084.75;;;11.43;43.70
37206;BME280;23099;42.636;23.198;2023-04-01T01:46:03;91084.72;;;11.54;43.59
37206;BME280;23099;42.636;23.198;2023-04-01T01:48:34;91059.84;;;11.57;43.29
37206;BME280;23099;42.636;23.198;2023-04-01T01:51:03;91064.44;;;11.60;43.03
37206;BME280;23099;42.636;23.198;2023-04-01T01:53:31;91062.09;;;11.69;43.35
37206;BME280;23099;42.636;23.198;2023-04-01T01:55:58;91060.97;;;11.66;43.66
37206;BME280;23099;42.636;23.198;2023-04-01T01:58:28;91064.41;;;11.67;42.57
37206;BME280;23099;42.636;23.198;2023-04-01T02:01:00;91052.13;;;11.73;42.67
37206;BME280;23099;42.636;23.198;2023-04-01T02:03:29;91049.84;;;11.75;42.91
37206;BME280;23099;42.636;23.198;2023-04-01T02:05:59;91048.31;;;11.74;42.70
37206;BME280;23099;42.636;23.198;2023-04-01T02:08:32;91056.34;;;11.70;43.36
37206;BME280;23099;42.636;23.198;2023-04-01T02:11:03;91046.78;;;11.69;43.43
37206;BME280;23099;42.636;23.198;2023-04-01T02:13:35;91050.22;;;11.70;43.63
37206;BME280;23099;42.636;23.198;2023-04-01T02:16:07;91051.78;;;11.67;43.43
37206;BME280;23099;42.636;23.198;2023-04-01T02:18:36;91038.75;;;11.69;43.81
37206;BME280;23099;42.636;23.198;2023-04-01T02:21:05;91040.34;;;11.63;43.37
37206;BME280;23099;42.636;23.198;2023-04-01T02:23:36;91043.38;;;11.65;44.09
37206;BME280;23099;42.636;23.198;2023-04-01T02:26:05;91045.28;;;11.65;43.14
37206;BME280;23099;42.636;23.198;2023-04-01T02:28:33;91042.22;;;11.66;42.14
37206;BME280;23099;42.636;23.198;2023-04-01T02:31:01;91040.69;;;11.76;42.81
37206;BME280;23099;42.636;23.198;2023-04-01T02:33:30;91041.03;;;11.75;42.62
37206;BME280;23099;42.636;23.198;2023-04-01T02:35:57;91036.09;;;11.77;42.54
37206;BME280;23099;42.636;23.198;2023-04-01T02:38:24;91042.94;;;11.74;42.96
37206;BME280;23099;42.636;23.198;2023-04-01T02:40:58;91041.44;;;11.77;43.11
37206;BME280;23099;42.636;23.198;2023-04-01T02:43:26;91044.13;;;11.77;43.18
37206;BME280;23099;42.636;23.198;2023-04-01T02:45:53;91050.22;;;11.81;42.59
37206;BME280;23099;42.636;23.198;2023-04-01T02:48:20;91059.41;;;11.76;43.69
37206;BME280;23099;42.636;23.198;2023-04-01T02:50:46;91059.00;;;11.74;43.47
37206;BME280;23099;42.636;23.198;2023-04-01T02:53:13;91057.50;;;11.77;43.51
37206;BME280;23099;42.636;23.198;2023-04-01T02:55:40;91060.53;;;11.75;43.72
37206;BME280;23099;42.636;23.198;2023-04-01T02:58:08;91074.31;;;11.70;44.49
37206;BME280;23099;42.636;23.198;2023-04-01T03:00:34;91078.16;;;11.69;44.23
37206;BME280;23099;42.636;23.198;2023-04-01T03:03:01;91076.28;;;11.62;44.86
37206;BME280;23099;42.636;23.198;2023-04-01T03:05:28;91074.75;;;11.61;45.65
37206;BME280;23099;42.636;23.198;2023-04-01T03:07:55;91073.22;;;11.57;46.24
37206;BME280;23099;42.636;23.198;2023-04-01T03:10:22;91072.50;;;11.53;46.22
37206;BME280;23099;42.636;23.198;2023-04-01T03:12:49;91072.50;;;11.46;47.14
37206;BME280;23099;42.636;23.198;2023-04-01T03:15:17;91093.94;;;11.28;48.22
37206;BME280;23099;42.636;23.198;2023-04-01T03:17:43;91095.13;;;11.16;51.83
37206;BME280;23099;42.636;23.198;2023-04-01T03:20:12;91085.59;;;11.05;52.60
37206;BME280;23099;42.636;23.198;2023-04-01T03:22:39;91089.06;;;10.91;51.86
37206;BME280;23099;42.636;23.198;2023-04-01T03:25:06;91085.63;;;10.87;56.16
37206;BME280;23099;42.636;23.198;2023-04-01T03:27:34;91073.41;;;10.72;60.32
37206;BME280;23099;42.636;23.198;2023-04-01T03:30:01;91067.31;;;10.57;64.25
37206;BME280;23099;42.636;23.198;2023-04-01T03:32:29;91054.75;;;10.50;66.23
37206;BME280;23099;42.636;23.198;2023-04-01T03:34:56;91052.06;;;10.43;63.91
37206;BME280;23099;42.636;23.198;2023-04-01T03:37:23;91044.03;;;10.40;65.85
37206;BME280;23099;42.636;23.198;2023-04-01T03:39:50;91033.75;;;10.24;64.43
37206;BME280;23099;42.636;23.198;2023-04-01T03:42:17;91018.06;;;10.15;65.72
37206;BME280;23099;42.636;23.198;2023-04-01T03:44:43;91004.72;;;10.08;66.88
37206;BME280;23099;42.636;23.198;2023-04-01T03:47:10;91000.91;;;10.06;67.25
37206;BME280;23099;42.636;23.198;2023-04-01T03:49:38;90990.63;;;10.08;67.87
37206;BME280;23099;42.636;23.198;2023-04-01T03:52:08;90976.88;;;10.02;67.27
37206;BME280;23099;42.636;23.198;2023-04-01T03:54:35;90976.88;;;10.06;67.18
37206;BME280;23099;42.636;23.198;2023-04-01T03:57:02;90960.09;;;10.12;66.88
37206;BME280;23099;42.636;23.198;2023-04-01T03:59:29;90960.84;;;10.16;66.96
37206;BME280;23099;42.636;23.198;2023-04-01T04:01:56;90950.94;;;10.17;63.86
37206;BME280;23099;42.636;23.198;2023-04-01T04:04:22;90955.16;;;10.28;66.70
37206;BME280;23099;42.636;23.198;2023-04-01T04:06:50;90947.91;;;10.25;63.14
37206;BME280;23099;42.636;23.198;2023-04-01T04:09:17;90950.94;;;10.35;63.45
37206;BME280;23099;42.636;23.198;2023-04-01T04:11:44;90937.97;;;10.40;60.88
37206;BME280;23099;42.636;23.198;2023-04-01T04:14:10;90936.44;;;10.39;59.97
37206;BME280;23099;42.636;23.198;2023-04-01T04:16:37;90942.16;;;10.48;58.04
37206;BME280;23099;42.636;23.198;2023-04-01T04:19:04;90943.28;;;10.54;59.78
37206;BME280;23099;42.636;23.198;2023-04-01T04:21:31;90940.22;;;10.56;54.71
37206;BME280;23099;42.636;23.198;2023-04-01T04:24:00;90933.34;;;10.58;56.68
37206;BME280;23099;42.636;23.198;2023-04-01T04:26:27;90932.53;;;10.69;55.53
37206;BME280;23099;42.636;23.198;2023-04-01T04:28:54;90935.59;;;10.78;53.81
37206;BME280;23099;42.636;23.198;2023-04-01T04:31:22;90926.78;;;10.88;51.36
37206;BME280;23099;42.636;23.198;2023-04-01T04:33:49;90924.44;;;10.97;54.97
37206;BME280;23099;42.636;23.198;2023-04-01T04:36:17;90921.38;;;11.02;56.95
37206;BME280;23099;42.636;23.198;2023-04-01T04:38:44;90921.38;;;11.02;54.61
37206;BME280;23099;42.636;23.198;2023-04-01T04:41:12;90911.06;;;11.01;53.33
37206;BME280;23099;42.636;23.198;2023-04-01T04:43:40;90896.53;;;11.05;52.11
37206;BME280;23099;42.636;23.198;2023-04-01T04:46:07;90897.28;;;11.06;51.40
37206;BME280;23099;42.636;23.198;2023-04-01T04:48:34;90902.66;;;11.02;49.47
37206;BME280;23099;42.636;23.198;2023-04-01T04:51:01;90896.47;;;11.12;48.67
37206;BME280;23099;42.636;23.198;2023-04-01T04:53:28;90887.69;;;11.12;48.38
37206;BME280;23099;42.636;23.198;2023-04-01T04:55:55;90885.00;;;11.15;46.39
37206;BME280;23099;42.636;23.198;2023-04-01T04:58:23;90879.25;;;11.20;46.10
37206;BME280;23099;42.636;23.198;2023-04-01T05:00:50;90877.69;;;11.26;44.39
37206;BME280;23099;42.636;23.198;2023-04-01T05:03:16;90873.09;;;11.30;45.69
37206;BME280;23099;42.636;23.198;2023-04-01T05:05:49;90879.19;;;11.31;44.26
37206;BME280;23099;42.636;23.198;2023-04-01T05:08:16;90878.41;;;11.34;44.98
37206;BME280;23099;42.636;23.198;2023-04-01T05:10:43;90862.38;;;11.34;43.91
37206;BME280;23099;42.636;23.198;2023-04-01T05:13:10;90862.75;;;11.36;44.66
37206;BME280;23099;42.636;23.198;2023-04-01T05:15:38;90858.94;;;11.33;44.51
37206;BME280;23099;42.636;23.198;2023-04-01T05:18:05;90858.16;;;11.37;44.18
37206;BME280;23099;42.636;23.198;2023-04-01T05:20:32;90851.25;;;11.39;44.57
37206;BME280;23099;42.636;23.198;2023-04-01T05:22:59;90848.22;;;11.37;44.71
37206;BME280;23099;42.636;23.198;2023-04-01T05:25:26;90850.09;;;11.40;44.11
37206;BME280;23099;42.636;23.198;2023-04-01T05:27:53;90844.00;;;11.40;45.34
37206;BME280;23099;42.636;23.198;2023-04-01T05:30:20;90847.81;;;11.39;44.42
37206;BME280;23099;42.636;23.198;2023-04-01T05:32:48;90845.47;;;11.44;44.98
37206;BME280;23099;42.636;23.198;2023-04-01T05:35:15;90848.16;;;11.44;44.59
37206;BME280;23099;42.636;23.198;2023-04-01T05:37:41;90856.50;;;11.53;44.28
37206;BME280;23099;42.636;23.198;2023-04-01T05:40:09;90848.03;;;11.62;43.94
37206;BME280;23099;42.636;23.198;2023-04-01T05:42:36;90839.16;;;11.72;43.73
37206;BME280;23099;42.636;23.198;2023-04-01T05:45:03;90829.56;;;11.75;43.61
37206;BME280;23099;42.636;23.198;2023-04-01T05:47:30;90831.09;;;11.79;44.60
37206;BME280;23099;42.636;23.198;2023-04-01T05:49:58;90825.28;;;11.88;42.72
37206;BME280;23099;42.636;23.198;2023-04-01T05:52:24;90833.97;;;11.99;42.84
37206;BME280;23099;42.636;23.198;2023-04-01T05:54:51;90823.09;;;12.17;41.55
37206;BME280;23099;42.636;23.198;2023-04-01T05:57:18;90821.06;;;12.28;42.06
37206;BME280;23099;42.636;23.198;2023-04-01T05:59:44;90812.06;;;12.45;41.43
37206;BME280;23099;42.636;23.198;2023-04-01T06:02:11;90811.78;;;12.70;40.98
37206;BME280;23099;42.636;23.198;2023-04-01T06:04:39;90814.94;;;12.95;40.03
37206;BME280;23099;42.636;23.198;2023-04-01T06:07:12;90815.84;;;13.12;39.50
37206;BME280;23099;42.636;23.198;2023-04-01T06:09:40;90823.25;;;13.31;39.01
37206;BME280;23099;42.636;23.198;2023-04-01T06:12:33;90808.19;;;13.41;38.74
37206;BME280;23099;42.636;23.198;2023-04-01T06:15:18;90812.69;;;13.48;38.39
37206;BME280;23099;42.636;23.198;2023-04-01T06:18:03;90821.91;;;13.47;39.41
37206;BME280;23099;42.636;23.198;2023-04-01T06:20:36;90833.78;;;13.45;40.25
37206;BME280;23099;42.636;23.198;2023-04-01T06:23:19;90830.47;;;13.38;40.25
37206;BME280;23099;42.636;23.198;2023-04-01T06:25:58;90819.69;;;13.41;40.29
37206;BME280;23099;42.636;23.198;2023-04-01T06:28:44;90801.31;;;13.40;39.40
37206;BME280;23099;42.636;23.198;2023-04-01T06:31:24;90799.25;;;13.48;39.74
37206;BME280;23099;42.636;23.198;2023-04-01T06:34:03;90807.75;;;13.42;40.19
37206;BME280;23099;42.636;23.198;2023-04-01T06:36:52;90808.53;;;13.43;40.21
37206;BME280;23099;42.636;23.198;2023-04-01T06:39:49;90796.78;;;13.33;40.23
37206;BME280;23099;42.636;23.198;2023-04-01T06:42:29;90794.09;;;13.33;39.61
37206;BME280;23099;42.636;23.198;2023-04-01T06:45:08;90799.13;;;13.31;40.18
37206;BME280;23099;42.636;23.198;2023-04-01T06:47:49;90798.75;;;13.29;40.18
37206;BME280;23099;42.636;23.198;2023-04-01T06:50:22;90798.06;;;13.25;40.58
37206;BME280;23099;42.636;23.198;2023-04-01T06:52:56;90789.94;;;13.29;39.87
37206;BME280;23099;42.636;23.198;2023-04-01T06:55:34;90805.66;;;13.30;39.61
37206;BME280;23099;42.636;23.198;2023-04-01T06:58:04;90784.97;;;13.27;39.11
37206;BME280;23099;42.636;23.198;2023-04-01T07:00:36;90776.25;;;13.23;40.02
37206;BME280;23099;42.636;23.198;2023-04-01T07:03:16;90782.00;;;13.22;40.07
37206;BME280;23099;42.636;23.198;2023-04-01T07:05:46;90793.88;;;13.24;40.10
37206;BME280;23099;42.636;23.198;2023-04-01T07:08:17;90783.41;;;13.30;39.22
37206;BME280;23099;42.636;23.198;2023-04-01T07:10:49;90801.81;;;13.31;39.58
37206;BME280;23099;42.636;23.198;2023-04-01T07:13:21;90782.25;;;13.31;40.16
37206;BME280;23099;42.636;23.198;2023-04-01T07:15:58;90791.47;;;13.30;40.35
37206;BME280;23099;42.636;23.198;2023-04-01T07:18:32;90791.53;;;13.26;40.21
37206;BME280;23099;42.636;23.198;2023-04-01T07:21:01;90804.44;;;13.35;39.52
37206;BME280;23099;42.636;23.198;2023-04-01T07:23:32;90810.94;;;13.37;40.36
37206;BME280;23099;42.636;23.198;2023-04-01T07:26:08;90802.75;;;13.44;40.10
37206;BME280;23099;42.636;23.198;2023-04-01T07:28:37;90790.03;;;13.49;40.15
37206;BME280;23099;42.636;23.198;2023-04-01T07:31:12;90796.88;;;13.53;40.13
37206;BME280;23099;42.636;23.198;2023-04-01T07:33:45;90809.81;;;13.58;39.49
37206;BME280;23099;42.636;23.198;2023-04-01T07:36:23;90801.84;;;13.55;39.48
37206;BME280;23099;42.636;23.198;2023-04-01T07:38:59;90794.25;;;13.50;39.80
37206;BME280;23099;42.636;23.198;2023-04-01T07:41:34;90803.09;;;13.47;39.66
37206;BME280;23099;42.636;23.198;2023-04-01T07:44:11;90799.44;;;13.37;39.17
37206;BME280;23099;42.636;23.198;2023-04-01T07:46:55;90794.47;;;13.35;39.23
37206;BME280;23099;42.636;23.198;2023-04-01T07:49:30;90804.84;;;13.33;39.75
37206;BME280;23099;42.636;23.198;2023-04-01T07:52:06;90801.03;;;13.31;40.48
37206;BME280;23099;42.636;23.198;2023-04-01T07:54:42;90790.72;;;13.29;40.27
37206;BME280;23099;42.636;23.198;2023-04-01T07:57:17;90794.16;;;13.30;40.91
37206;BME280;23099;42.636;23.198;2023-04-01T07:59:54;90792.22;;;13.30;41.03
37206;BME280;23099;42.636;23.198;2023-04-01T08:02:34;90781.97;;;13.25;41.80
37206;BME280;23099;42.636;23.198;2023-04-01T08:05:14;90769.66;;;13.28;41.92
37206;BME280;23099;42.636;23.198;2023-04-01T08:07:53;90776.09;;;13.34;41.04
37206;BME280;23099;42.636;23.198;2023-04-01T08:10:27;90765.00;;;13.32;42.17
37206;BME280;23099;42.636;23.198;2023-04-01T08:13:05;90769.91;;;13.37;42.49
37206;BME280;23099;42.636;23.198;2023-04-01T08:15:38;90763.38;;;13.38;42.72
37206;BME280;23099;42.636;23.198;2023-04-01T08:18:16;90746.13;;;13.39;42.46
37206;BME280;23099;42.636;23.198;2023-04-01T08:20:48;90746.38;;;13.44;42.09
37206;BME280;23099;42.636;23.198;2023-04-01T08:23:19;90740.16;;;13.51;40.41
37206;BME280;23099;42.636;23.198;2023-04-01T08:25:50;90735.00;;;13.60;40.59
37206;BME280;23099;42.636;23.198;2023-04-01T08:28:25;90717.44;;;13.79;40.08
37206;BME280;23099;42.636;23.198;2023-04-01T08:30:53;90709.88;;;13.94;39.98
37206;BME280;23099;42.636;23.198;2023-04-01T08:33:25;90698.81;;;14.11;38.80
37206;BME280;23099;42.636;23.198;2023-04-01T08:35:56;90692.75;;;14.27;39.37
37206;BME280;23099;42.636;23.198;2023-04-01T08:38:29;90680.63;;;14.39;37.87
37206;BME280;23099;42.636;23.198;2023-04-01T08:41:26;90690.47;;;14.45;36.84
37206;BME280;23099;42.636;23.198;2023-04-01T08:44:15;90686.00;;;14.39;37.30
37206;BME280;23099;42.636;23.198;2023-04-01T08:47:07;90682.66;;;14.31;37.72
37206;BME280;23099;42.636;23.198;2023-04-01T08:49:51;90689.97;;;14.31;37.54
37206;BME280;23099;42.636;23.198;2023-04-01T08:52:38;90679.31;;;14.27;38.02
37206;BME280;23099;42.636;23.198;2023-04-01T08:55:25;90680.06;;;14.28;38.19
37206;BME280;23099;42.636;23.198;2023-04-01T08:58:07;90682.31;;;14.29;37.75
37206;BME280;23099;42.636;23.198;2023-04-01T09:00:44;90678.88;;;14.29;38.11
37206;BME280;23099;42.636;23.198;2023-04-01T09:03:26;90676.63;;;14.27;37.88
37206;BME280;23099;42.636;23.198;2023-04-01T09:06:31;90683.03;;;14.33;38.08
37206;BME280;23099;42.636;23.198;2023-04-01T09:09:36;90681.56;;;14.29;38.42
37206;BME280;23099;42.636;23.198;2023-04-01T09:12:17;90679.91;;;14.35;38.31
37206;BME280;23099;42.636;23.198;2023-04-01T09:15:18;90667.81;;;14.27;37.74
37206;BME280;23099;42.636;23.198;2023-04-01T09:18:09;90675.94;;;14.23;37.89
37206;BME280;23099;42.636;23.198;2023-04-01T09:20:51;90670.16;;;14.25;38.76
37206;BME280;23099;42.636;23.198;2023-04-01T09:23:38;90673.59;;;14.25;38.85
37206;BME280;23099;42.636;23.198;2023-04-01T09:26:33;90668.63;;;14.24;39.00
37206;BME280;23099;42.636;23.198;2023-04-01T09:29:09;90669.31;;;14.08;39.70
37206;BME280;23099;42.636;23.198;2023-04-01T09:31:53;90660.16;;;14.05;40.00
37206;BME280;23099;42.636;23.198;2023-04-01T09:34:40;90660.31;;;13.98;40.21
37206;BME280;23099;42.636;23.198;2023-04-01T09:37:19;90643.50;;;13.94;40.60
37206;BME280;23099;42.636;23.198;2023-04-01T09:39:57;90650.38;;;13.95;40.94
37206;BME280;23099;42.636;23.198;2023-04-01T09:42:42;90645.72;;;13.99;41.65
37206;BME280;23099;42.636;23.198;2023-04-01T09:45:19;90631.72;;;13.88;41.32
37206;BME280;23099;42.636;23.198;2023-04-01T09:48:01;90634.97;;;13.99;41.98
37206;BME280;23099;42.636;23.198;2023-04-01T09:50:37;90625.66;;;14.04;42.05
37206;BME280;23099;42.636;23.198;2023-04-01T09:53:14;90621.97;;;14.14;41.89
37206;BME280;23099;42.636;23.198;2023-04-01T09:56:29;90621.66;;;14.12;42.12
37206;BME280;23099;42.636;23.198;2023-04-01T10:02:44;90595.91;;;14.50;42.33
37206;BME280;23099;42.636;23.198;2023-04-01T10:05:47;90592.38;;;14.54;41.86
37206;BME280;23099;42.636;23.198;2023-04-01T10:08:39;90600.25;;;14.44;41.32
37206;BME280;23099;42.636;23.198;2023-04-01T10:11:58;90582.94;;;14.45;40.92
37206;BME280;23099;42.636;23.198;2023-04-01T10:14:40;90582.13;;;14.48;40.87
37206;BME280;23099;42.636;23.198;2023-04-01T10:17:37;90588.31;;;14.45;40.53
37206;BME280;23099;42.636;23.198;2023-04-01T10:23:27;90564.81;;;14.49;40.69
37206;BME280;23099;42.636;23.198;2023-04-01T10:29:26;90559.38;;;14.53;40.31
37206;BME280;23099;42.636;23.198;2023-04-01T10:32:23;90563.47;;;14.58;40.28
37206;BME280;23099;42.636;23.198;2023-04-01T10:35:14;90554.34;;;14.71;40.05
37206;BME280;23099;42.636;23.198;2023-04-01T10:38:10;90536.69;;;14.70;40.60
37206;BME280;23099;42.636;23.198;2023-04-01T10:40:57;90540.13;;;14.71;39.87
37206;BME280;23099;42.636;23.198;2023-04-01T10:43:56;90538.69;;;14.66;39.89
37206;BME280;23099;42.636;23.198;2023-04-01T10:47:02;90527.88;;;14.70;39.56
37206;BME280;23099;42.636;23.198;2023-04-01T10:49:47;90534.66;;;14.74;39.59
37206;BME280;23099;42.636;23.198;2023-04-01T10:53:04;90530.72;;;14.79;40.14
37206;BME280;23099;42.636;23.198;2023-04-01T10:55:55;90519.63;;;14.77;40.05
37206;BME280;23099;42.636;23.198;2023-04-01T11:02:06;90517.41;;;14.88;39.99
37206;BME280;23099;42.636;23.198;2023-04-01T11:08:39;90506.06;;;14.97;40.18
37206;BME280;23099;42.636;23.198;2023-04-01T11:18:19;90526.44;;;14.65;40.67
37206;BME280;23099;42.636;23.198;2023-04-01T11:21:21;90541.38;;;14.50;43.14
37206;BME280;23099;42.636;23.198;2023-04-01T11:23:54;90555.34;;;14.25;45.95
37206;BME280;23099;42.636;23.198;2023-04-01T11:26:32;90569.75;;;13.99;47.05
37206;BME280;23099;42.636;23.198;2023-04-01T11:32:26;90603.38;;;13.44;52.65
37206;BME280;23099;42.636;23.198;2023-04-01T11:35:00;90644.88;;;13.16;53.32
37206;BME280;23099;42.636;23.198;2023-04-01T11:37:38;90671.09;;;12.82;60.59
37206;BME280;23099;42.636;23.198;2023-04-01T11:40:17;90732.75;;;12.21;68.71
37206;BME280;23099;42.636;23.198;2023-04-01T11:42:55;90778.88;;;11.57;76.20
37206;BME280;23099;42.636;23.198;2023-04-01T11:45:35;90778.09;;;11.08;81.38
37206;BME280;23099;42.636;23.198;2023-04-01T11:48:24;90772.94;;;10.80;85.21
37206;BME280;23099;42.636;23.198;2023-04-01T11:51:06;90775.72;;;10.58;86.83
37206;BME280;23099;42.636;23.198;2023-04-01T11:53:44;90786.84;;;10.50;89.67
37206;BME280;23099;42.636;23.198;2023-04-01T11:56:21;90775.41;;;10.42;90.16
37206;BME280;23099;42.636;23.198;2023-04-01T12:01:59;90770.56;;;9.98;96.76
37206;BME280;23099;42.636;23.198;2023-04-01T12:04:47;90772.56;;;9.76;98.74
37206;BME280;23099;42.636;23.198;2023-04-01T12:07:27;90766.84;;;9.60;100.00
37206;BME280;23099;42.636;23.198;2023-04-01T12:10:11;90756.56;;;9.58;100.00
37206;BME280;23099;42.636;23.198;2023-04-01T12:12:48;90759.63;;;9.64;100.00
37206;BME280;23099;42.636;23.198;2023-04-01T12:15:25;90761.91;;;9.58;100.00
37206;BME280;23099;42.636;23.198;2023-04-01T12:17:57;90757.31;;;9.55;100.00
37206;BME280;23099;42.636;23.198;2023-04-01T12:20:36;90752.78;;;9.49;100.00
37206;BME280;23099;42.636;23.198;2023-04-01T12:23:21;90750.84;;;9.53;100.00
37206;BME280;23099;42.636;23.198;2023-04-01T12:26:10;90752.38;;;9.57;100.00
37206;BME280;23099;42.636;23.198;2023-04-01T12:28:53;90761.16;;;9.62;100.00
37206;BME280;23099;42.636;23.198;2023-04-01T12:31:30;90763.81;;;9.58;100.00
37206;BME280;23099;42.636;23.198;2023-04-01T12:37:12;90780.59;;;9.51;100.00
37206;BME280;23099;42.636;23.198;2023-04-01T12:40:05;90779.47;;;9.31;100.00
37206;BME280;23099;42.636;23.198;2023-04-01T12:42:58;90756.59;;;9.16;100.00
37206;BME280;23099;42.636;23.198;2023-04-01T12:45:31;90756.59;;;9.12;100.00
37206;BME280;23099;42.636;23.198;2023-04-01T12:48:15;90760.03;;;9.16;100.00
37206;BME280;23099;42.636;23.198;2023-04-01T12:50:51;90757.00;;;9.14;100.00
37206;BME280;23099;42.636;23.198;2023-04-01T12:53:30;90743.66;;;9.18;100.00
37206;BME280;23099;42.636;23.198;2023-04-01T12:56:10;90734.16;;;9.20;100.00
37206;BME280;23099;42.636;23.198;2023-04-01T13:02:03;90738.34;;;9.18;100.00
37206;BME280;23099;42.636;23.198;2023-04-01T13:04:44;90715.88;;;9.15;100.00
37206;BME280;23099;42.636;23.198;2023-04-01T13:10:25;90685.41;;;9.16;97.49
37206;BME280;23099;42.636;23.198;2023-04-01T13:13:10;90691.50;;;9.20;98.12
37206;BME280;23099;42.636;23.198;2023-04-01T13:15:41;90681.56;;;9.25;100.00
37206;BME280;23099;42.636;23.198;2023-04-01T13:18:19;90682.72;;;9.31;95.99
37206;BME280;23099;42.636;23.198;2023-04-01T13:20:54;90671.63;;;9.46;98.97
37206;BME280;23099;42.636;23.198;2023-04-01T13:23:34;90680.34;;;9.61;95.62
37206;BME280;23099;42.636;23.198;2023-04-01T13:26:12;90672.31;;;9.75;94.59
37206;BME280;23099;42.636;23.198;2023-04-01T13:28:45;90679.88;;;9.91;96.59
37206;BME280;23099;42.636;23.198;2023-04-01T13:31:29;90683.63;;;10.04;92.68
37206;BME280;23099;42.636;23.198;2023-04-01T13:34:09;90673.31;;;10.10;89.93
37206;BME280;23099;42.636;23.198;2023-04-01T13:36:48;90671.75;;;10.19;89.09
37206;BME280;23099;42.636;23.198;2023-04-01T13:39:29;90657.97;;;10.28;87.14
37206;BME280;23099;42.636;23.198;2023-04-01T13:42:16;90649.94;;;10.35;89.03
37206;BME280;23099;42.636;23.198;2023-04-01T13:44:48;90647.56;;;10.48;84.28
37206;BME280;23099;42.636;23.198;2023-04-01T13:47:43;90642.13;;;10.58;83.53
37206;BME280;23099;42.636;23.198;2023-04-01T13:50:34;90612.38;;;11.01;84.46
37206;BME280;23099;42.636;23.198;2023-04-01T13:53:29;90625.91;;;11.62;86.99
37206;BME280;23099;42.636;23.198;2023-04-01T13:56:08;90606.47;;;11.92;75.90
37206;BME280;23099;42.636;23.198;2023-04-01T13:58:50;90606.50;;;12.19;70.33
37206;BME280;23099;42.636;23.198;2023-04-01T14:01:25;90600.22;;;12.02;71.05
37206;BME280;23099;42.636;23.198;2023-04-01T14:07:08;90595.69;;;11.65;71.21
37206;BME280;23099;42.636;23.198;2023-04-01T14:09:51;90589.75;;;11.50;69.87
37206;BME280;23099;42.636;23.198;2023-04-01T14:12:30;90588.63;;;11.48;71.08
37206;BME280;23099;42.636;23.198;2023-04-01T14:15:10;90597.63;;;11.61;69.53
37206;BME280;23099;42.636;23.198;2023-04-01T14:17:56;90594.81;;;11.72;70.58